sensor_id;sensor_type;location;lat;lon;timestamp;noise_LAeq;noise_LA_min;noise_LA_max;noise_LA01;noise_LA95
59284;Laerm;45056;47.602;9.886;2023-07-29T00:00:04;42.23;34.34;56.67;;
59284;Laerm;45056;47.602;9.886;2023-07-29T00:02:33;39.51;34.31;54.02;;
59284;Laerm;45056;47.602;9.886;2023-07-29T00:05:05;38.63;34.31;41.46;;
59284;Laerm;45056;47.602;9.886;2023-07-29T00:07:33;38.74;34.69;42.09;;
59284;Laerm;45056;47.602;9.886;2023-07-29T00:10:07;39.94;34.69;51.06;;
59284;Laerm;45056;47.602;9.886;2023-07-29T00:12:36;38.40;33.44;41.89;;
59284;Laerm;45056;47.602;9.886;2023-07-29T00:15:06;40.98;33.90;53.61;;
59284;Laerm;45056;47.602;9.886;2023-07-29T00:17:34;39.66;34.69;44.11;;
59284;Laerm;45056;47.602;9.886;2023-07-29T00:20:03;47.43;35.04;66.02;;
59284;Laerm;45056;47.602;9.886;2023-07-29T00:22:32;40.18;35.04;48.73;;
59284;Laerm;45056;47.602;9.886;2023-07-29T00:25:00;39.94;35.04;51.29;;
59284;Laerm;45056;47.602;9.886;2023-07-29T00:27:30;38.49;33.44;41.82;;
59284;Laerm;45056;47.602;9.886;2023-07-29T00:29:58;39.29;34.31;43.19;;
59284;Laerm;45056;47.602;9.886;2023-07-29T00:32:29;49.03;36.45;59.21;;
59284;Laerm;45056;47.602;9.886;2023-07-29T00:34:57;45.53;36.69;57.58;;
59284;Laerm;45056;47.602;9.886;2023-07-29T00:37:29;41.41;35.66;50.50;;
59284;Laerm;45056;47.602;9.886;2023-07-29T00:39:57;39.24;35.04;48.57;;
59284;Laerm;45056;47.602;9.886;2023-07-29T00:42:26;39.94;35.36;49.90;;
59284;Laerm;45056;47.602;9.886;2023-07-29T00:44:55;39.10;34.31;47.06;;
59284;Laerm;45056;47.602;9.886;2023-07-29T00:47:25;48.10;36.20;62.46;;
59284;Laerm;45056;47.602;9.886;2023-07-29T00:49:53;45.63;38.21;59.24;;
59284;Laerm;45056;47.602;9.886;2023-07-29T00:52:22;47.94;42.03;56.25;;
59284;Laerm;45056;47.602;9.886;2023-07-29T00:54:50;42.06;38.37;54.89;;
59284;Laerm;45056;47.602;9.886;2023-07-29T00:57:20;42.28;37.32;55.50;;
59284;Laerm;45056;47.602;9.886;2023-07-29T00:59:49;42.81;36.45;58.39;;
59284;Laerm;45056;47.602;9.886;2023-07-29T01:02:20;42.77;35.36;54.61;;
59284;Laerm;45056;47.602;9.886;2023-07-29T01:04:52;39.19;35.36;45.77;;
59284;Laerm;45056;47.602;9.886;2023-07-29T01:07:32;39.54;35.66;45.17;;
59284;Laerm;45056;47.602;9.886;2023-07-29T01:10:10;40.11;34.69;49.10;;
59284;Laerm;45056;47.602;9.886;2023-07-29T01:12:54;39.38;35.04;44.39;;
59284;Laerm;45056;47.602;9.886;2023-07-29T01:15:42;41.30;35.94;60.14;;
59284;Laerm;45056;47.602;9.886;2023-07-29T01:18:23;39.74;34.69;45.33;;
59284;Laerm;45056;47.602;9.886;2023-07-29T01:20:54;41.31;37.32;48.61;;
59284;Laerm;45056;47.602;9.886;2023-07-29T01:23:29;39.33;35.36;45.34;;
59284;Laerm;45056;47.602;9.886;2023-07-29T01:25:58;41.12;34.31;53.49;;
59284;Laerm;45056;47.602;9.886;2023-07-29T01:28:27;42.48;35.66;56.83;;
59284;Laerm;45056;47.602;9.886;2023-07-29T01:31:06;41.77;35.04;59.80;;
59284;Laerm;45056;47.602;9.886;2023-07-29T01:33:47;39.20;35.04;44.15;;
59284;Laerm;45056;47.602;9.886;2023-07-29T01:36:22;42.59;35.04;57.67;;
59284;Laerm;45056;47.602;9.886;2023-07-29T01:38:57;39.88;33.90;45.86;;
59284;Laerm;45056;47.602;9.886;2023-07-29T01:41:27;39.00;34.69;42.65;;
59284;Laerm;45056;47.602;9.886;2023-07-29T01:43:57;38.50;34.31;43.63;;
59284;Laerm;45056;47.602;9.886;2023-07-29T01:46:26;42.25;34.31;59.31;;
59284;Laerm;45056;47.602;9.886;2023-07-29T01:48:54;41.07;34.69;54.73;;
59284;Laerm;45056;47.602;9.886;2023-07-29T01:51:22;41.98;34.69;53.96;;
59284;Laerm;45056;47.602;9.886;2023-07-29T01:53:52;40.65;34.69;47.16;;
59284;Laerm;45056;47.602;9.886;2023-07-29T01:56:23;38.86;35.04;43.34;;
59284;Laerm;45056;47.602;9.886;2023-07-29T01:58:51;38.42;33.90;41.61;;
59284;Laerm;45056;47.602;9.886;2023-07-29T02:01:20;43.84;33.90;55.12;;
59284;Laerm;45056;47.602;9.886;2023-07-29T02:03:48;38.91;34.69;43.28;;
59284;Laerm;45056;47.602;9.886;2023-07-29T02:06:21;38.63;34.31;42.53;;
59284;Laerm;45056;47.602;9.886;2023-07-29T02:08:50;38.79;34.69;43.09;;
59284;Laerm;45056;47.602;9.886;2023-07-29T02:11:18;38.52;34.69;49.08;;
59284;Laerm;45056;47.602;9.886;2023-07-29T02:13:48;42.63;35.66;54.34;;
59284;Laerm;45056;47.602;9.886;2023-07-29T02:16:16;40.20;35.04;55.76;;
59284;Laerm;45056;47.602;9.886;2023-07-29T02:18:44;44.82;34.31;57.78;;
59284;Laerm;45056;47.602;9.886;2023-07-29T02:21:13;40.53;36.91;56.03;;
59284;Laerm;45056;47.602;9.886;2023-07-29T02:23:41;41.32;34.31;53.82;;
59284;Laerm;45056;47.602;9.886;2023-07-29T02:26:09;39.60;32.93;45.20;;
59284;Laerm;45056;47.602;9.886;2023-07-29T02:28:37;38.94;33.44;47.91;;
59284;Laerm;45056;47.602;9.886;2023-07-29T02:31:17;40.72;32.93;54.90;;
59284;Laerm;45056;47.602;9.886;2023-07-29T02:33:45;39.89;34.31;52.69;;
59284;Laerm;45056;47.602;9.886;2023-07-29T02:36:14;42.22;35.04;56.23;;
59284;Laerm;45056;47.602;9.886;2023-07-29T02:38:42;41.99;34.69;57.34;;
59284;Laerm;45056;47.602;9.886;2023-07-29T02:41:11;40.55;35.36;51.83;;
59284;Laerm;45056;47.602;9.886;2023-07-29T02:43:39;43.10;35.04;60.66;;
59284;Laerm;45056;47.602;9.886;2023-07-29T02:46:08;41.70;35.36;53.21;;
59284;Laerm;45056;47.602;9.886;2023-07-29T02:48:37;41.76;35.36;55.11;;
59284;Laerm;45056;47.602;9.886;2023-07-29T02:51:05;43.56;35.04;59.87;;
59284;Laerm;45056;47.602;9.886;2023-07-29T02:53:34;38.89;35.04;48.43;;
59284;Laerm;45056;47.602;9.886;2023-07-29T02:56:04;39.02;34.69;45.01;;
59284;Laerm;45056;47.602;9.886;2023-07-29T02:58:33;40.91;34.69;50.06;;
59284;Laerm;45056;47.602;9.886;2023-07-29T03:01:01;42.99;35.04;54.06;;
59284;Laerm;45056;47.602;9.886;2023-07-29T03:03:30;39.45;34.69;46.50;;
59284;Laerm;45056;47.602;9.886;2023-07-29T03:06:04;40.40;34.31;51.62;;
59284;Laerm;45056;47.602;9.886;2023-07-29T03:08:33;41.19;36.20;52.28;;
59284;Laerm;45056;47.602;9.886;2023-07-29T03:11:07;41.64;35.94;55.62;;
59284;Laerm;45056;47.602;9.886;2023-07-29T03:13:35;41.70;36.20;50.29;;
59284;Laerm;45056;47.602;9.886;2023-07-29T03:16:07;43.65;37.12;60.73;;
59284;Laerm;45056;47.602;9.886;2023-07-29T03:18:36;48.17;36.20;63.00;;
59284;Laerm;45056;47.602;9.886;2023-07-29T03:21:07;41.82;34.31;58.90;;
59284;Laerm;45056;47.602;9.886;2023-07-29T03:23:37;43.13;36.34;58.46;;
59284;Laerm;45056;47.602;9.886;2023-07-29T03:26:05;44.05;30.89;58.73;;
59284;Laerm;45056;47.602;9.886;2023-07-29T03:28:39;40.47;35.66;53.69;;
59284;Laerm;45056;47.602;9.886;2023-07-29T03:31:08;42.98;36.45;57.89;;
59284;Laerm;45056;47.602;9.886;2023-07-29T03:33:39;44.96;37.52;62.60;;
59284;Laerm;45056;47.602;9.886;2023-07-29T03:36:09;49.24;39.46;65.80;;
59284;Laerm;45056;47.602;9.886;2023-07-29T03:38:37;48.38;37.32;65.55;;
59284;Laerm;45056;47.602;9.886;2023-07-29T03:41:07;48.29;36.45;66.40;;
59284;Laerm;45056;47.602;9.886;2023-07-29T03:43:35;45.59;38.67;60.26;;
59284;Laerm;45056;47.602;9.886;2023-07-29T03:46:04;45.98;37.70;66.34;;
59284;Laerm;45056;47.602;9.886;2023-07-29T03:48:32;44.58;36.91;62.17;;
59284;Laerm;45056;47.602;9.886;2023-07-29T03:51:00;45.22;29.92;63.37;;
59284;Laerm;45056;47.602;9.886;2023-07-29T03:53:30;44.60;37.70;60.55;;
59284;Laerm;45056;47.602;9.886;2023-07-29T03:55:58;44.66;35.94;59.03;;
59284;Laerm;45056;47.602;9.886;2023-07-29T03:58:26;49.13;37.88;62.94;;
59284;Laerm;45056;47.602;9.886;2023-07-29T04:00:55;44.48;37.12;58.01;;
59284;Laerm;45056;47.602;9.886;2023-07-29T04:03:23;44.07;37.32;58.10;;
59284;Laerm;45056;47.602;9.886;2023-07-29T04:05:51;44.41;37.12;61.46;;
59284;Laerm;45056;47.602;9.886;2023-07-29T04:08:19;44.11;36.20;55.65;;
59284;Laerm;45056;47.602;9.886;2023-07-29T04:10:49;43.23;36.20;55.98;;
59284;Laerm;45056;47.602;9.886;2023-07-29T04:13:18;41.40;33.44;51.30;;
59284;Laerm;45056;47.602;9.886;2023-07-29T04:15:46;42.86;36.20;56.54;;
59284;Laerm;45056;47.602;9.886;2023-07-29T04:18:14;42.97;37.70;55.05;;
59284;Laerm;45056;47.602;9.886;2023-07-29T04:20:42;43.55;37.52;54.16;;
59284;Laerm;45056;47.602;9.886;2023-07-29T04:23:11;45.52;36.91;60.11;;
59284;Laerm;45056;47.602;9.886;2023-07-29T04:25:40;43.09;34.31;57.37;;
59284;Laerm;45056;47.602;9.886;2023-07-29T04:28:09;44.03;37.32;60.53;;
59284;Laerm;45056;47.602;9.886;2023-07-29T04:30:37;43.26;35.04;56.59;;
59284;Laerm;45056;47.602;9.886;2023-07-29T04:33:06;44.86;38.05;55.57;;
59284;Laerm;45056;47.602;9.886;2023-07-29T04:35:34;43.43;38.21;57.82;;
59284;Laerm;45056;47.602;9.886;2023-07-29T04:38:02;43.11;37.32;57.50;;
59284;Laerm;45056;47.602;9.886;2023-07-29T04:40:32;43.98;37.52;56.51;;
59284;Laerm;45056;47.602;9.886;2023-07-29T04:43:01;43.31;37.70;53.60;;
59284;Laerm;45056;47.602;9.886;2023-07-29T04:45:30;45.40;38.21;61.53;;
59284;Laerm;45056;47.602;9.886;2023-07-29T04:47:58;43.14;38.05;53.87;;
59284;Laerm;45056;47.602;9.886;2023-07-29T04:50:27;45.91;35.94;59.50;;
59284;Laerm;45056;47.602;9.886;2023-07-29T04:52:55;44.74;40.13;55.34;;
59284;Laerm;45056;47.602;9.886;2023-07-29T04:55:23;45.45;40.33;55.76;;
59284;Laerm;45056;47.602;9.886;2023-07-29T04:57:51;47.03;38.52;59.97;;
59284;Laerm;45056;47.602;9.886;2023-07-29T05:00:19;47.53;38.67;57.96;;
59284;Laerm;45056;47.602;9.886;2023-07-29T05:02:49;46.15;38.52;58.41;;
59284;Laerm;45056;47.602;9.886;2023-07-29T05:05:18;46.08;38.81;58.66;;
59284;Laerm;45056;47.602;9.886;2023-07-29T05:07:46;45.08;38.81;56.56;;
59284;Laerm;45056;47.602;9.886;2023-07-29T05:10:14;46.23;39.08;57.87;;
59284;Laerm;45056;47.602;9.886;2023-07-29T05:12:42;48.57;42.16;58.96;;
59284;Laerm;45056;47.602;9.886;2023-07-29T05:15:10;46.97;41.38;60.25;;
59284;Laerm;45056;47.602;9.886;2023-07-29T05:17:38;46.93;38.67;58.93;;
59284;Laerm;45056;47.602;9.886;2023-07-29T05:20:09;42.75;37.12;64.89;;
59284;Laerm;45056;47.602;9.886;2023-07-29T05:22:38;46.58;36.91;58.05;;
59284;Laerm;45056;47.602;9.886;2023-07-29T05:25:07;48.39;39.21;58.92;;
59284;Laerm;45056;47.602;9.886;2023-07-29T05:27:36;47.57;40.23;61.84;;
59284;Laerm;45056;47.602;9.886;2023-07-29T05:30:05;48.51;41.82;61.45;;
59284;Laerm;45056;47.602;9.886;2023-07-29T05:32:33;47.67;41.68;61.41;;
59284;Laerm;45056;47.602;9.886;2023-07-29T05:35:01;46.57;42.03;59.06;;
59284;Laerm;45056;47.602;9.886;2023-07-29T05:37:32;48.76;43.58;60.78;;
59284;Laerm;45056;47.602;9.886;2023-07-29T05:40:00;50.81;41.14;65.31;;
59284;Laerm;45056;47.602;9.886;2023-07-29T05:42:28;47.52;40.23;61.30;;
59284;Laerm;45056;47.602;9.886;2023-07-29T05:44:56;48.77;41.48;60.76;;
59284;Laerm;45056;47.602;9.886;2023-07-29T05:47:24;48.61;41.14;60.39;;
59284;Laerm;45056;47.602;9.886;2023-07-29T05:49:52;49.98;39.34;62.97;;
59284;Laerm;45056;47.602;9.886;2023-07-29T05:52:21;47.07;38.05;61.60;;
59284;Laerm;45056;47.602;9.886;2023-07-29T05:54:50;46.98;39.21;56.86;;
59284;Laerm;45056;47.602;9.886;2023-07-29T05:57:18;47.39;37.52;59.71;;
59284;Laerm;45056;47.602;9.886;2023-07-29T05:59:46;47.35;39.21;60.70;;
59284;Laerm;45056;47.602;9.886;2023-07-29T06:02:14;48.22;39.58;56.80;;
59284;Laerm;45056;47.602;9.886;2023-07-29T06:04:42;46.10;38.05;56.52;;
59284;Laerm;45056;47.602;9.886;2023-07-29T06:07:10;47.04;39.21;65.35;;
59284;Laerm;45056;47.602;9.886;2023-07-29T06:09:39;46.83;39.08;57.70;;
59284;Laerm;45056;47.602;9.886;2023-07-29T06:12:09;46.04;39.46;59.51;;
59284;Laerm;45056;47.602;9.886;2023-07-29T06:14:37;46.62;39.92;64.38;;
59284;Laerm;45056;47.602;9.886;2023-07-29T06:17:05;45.22;38.67;57.49;;
59284;Laerm;45056;47.602;9.886;2023-07-29T06:19:34;49.79;37.88;69.02;;
59284;Laerm;45056;47.602;9.886;2023-07-29T06:22:02;46.35;39.35;58.86;;
59284;Laerm;45056;47.602;9.886;2023-07-29T06:24:31;46.17;38.95;56.53;;
59284;Laerm;45056;47.602;9.886;2023-07-29T06:26:59;48.97;40.62;59.81;;
59284;Laerm;45056;47.602;9.886;2023-07-29T06:29:58;47.46;39.21;57.54;;
59284;Laerm;45056;47.602;9.886;2023-07-29T06:32:54;47.18;40.03;57.65;;
59284;Laerm;45056;47.602;9.886;2023-07-29T06:35:34;48.10;40.62;58.21;;
59284;Laerm;45056;47.602;9.886;2023-07-29T06:38:02;48.12;41.53;56.89;;
59284;Laerm;45056;47.602;9.886;2023-07-29T06:40:30;47.31;39.70;57.90;;
59284;Laerm;45056;47.602;9.886;2023-07-29T06:45:28;47.84;40.98;59.85;;
59284;Laerm;45056;47.602;9.886;2023-07-29T06:47:56;47.31;40.43;57.73;;
59284;Laerm;45056;47.602;9.886;2023-07-29T06:50:24;49.87;40.80;62.10;;
59284;Laerm;45056;47.602;9.886;2023-07-29T06:52:52;46.88;40.89;55.62;;
59284;Laerm;45056;47.602;9.886;2023-07-29T06:55:20;48.28;40.62;58.71;;
59284;Laerm;45056;47.602;9.886;2023-07-29T06:57:48;45.99;40.33;58.99;;
59284;Laerm;45056;47.602;9.886;2023-07-29T07:00:16;48.22;40.54;58.10;;
59284;Laerm;45056;47.602;9.886;2023-07-29T07:02:46;49.77;41.38;57.33;;
59284;Laerm;45056;47.602;9.886;2023-07-29T07:05:14;48.41;40.53;56.62;;
59284;Laerm;45056;47.602;9.886;2023-07-29T07:07:42;46.53;41.46;55.27;;
59284;Laerm;45056;47.602;9.886;2023-07-29T07:10:10;47.21;41.46;54.76;;
59284;Laerm;45056;47.602;9.886;2023-07-29T07:12:39;47.77;40.13;57.05;;
59284;Laerm;45056;47.602;9.886;2023-07-29T07:15:08;52.63;41.68;69.27;;
59284;Laerm;45056;47.602;9.886;2023-07-29T07:17:36;48.39;40.13;55.67;;
59284;Laerm;45056;47.602;9.886;2023-07-29T07:20:07;47.98;40.43;59.04;;
59284;Laerm;45056;47.602;9.886;2023-07-29T07:22:35;46.66;40.53;56.10;;
59284;Laerm;45056;47.602;9.886;2023-07-29T07:25:04;48.21;42.41;56.32;;
59284;Laerm;45056;47.602;9.886;2023-07-29T07:27:32;46.92;39.34;55.98;;
59284;Laerm;45056;47.602;9.886;2023-07-29T07:30:00;48.32;40.08;58.01;;
59284;Laerm;45056;47.602;9.886;2023-07-29T07:32:28;46.56;40.53;56.65;;
59284;Laerm;45056;47.602;9.886;2023-07-29T07:34:56;47.17;40.43;54.40;;
59284;Laerm;45056;47.602;9.886;2023-07-29T07:37:25;47.76;41.06;61.83;;
59284;Laerm;45056;47.602;9.886;2023-07-29T07:39:53;47.35;39.58;57.66;;
59284;Laerm;45056;47.602;9.886;2023-07-29T07:42:21;46.76;40.71;56.94;;
59284;Laerm;45056;47.602;9.886;2023-07-29T07:44:49;48.21;40.23;65.79;;
59284;Laerm;45056;47.602;9.886;2023-07-29T07:47:17;48.91;41.46;60.40;;
59284;Laerm;45056;47.602;9.886;2023-07-29T07:49:45;46.92;40.80;56.33;;
59284;Laerm;45056;47.602;9.886;2023-07-29T07:52:16;46.21;40.23;55.49;;
59284;Laerm;45056;47.602;9.886;2023-07-29T07:54:45;48.41;41.53;57.57;;
59284;Laerm;45056;47.602;9.886;2023-07-29T07:57:13;47.16;40.53;57.69;;
59284;Laerm;45056;47.602;9.886;2023-07-29T07:59:41;46.73;40.23;56.65;;
59284;Laerm;45056;47.602;9.886;2023-07-29T08:02:09;49.54;42.98;57.64;;
59284;Laerm;45056;47.602;9.886;2023-07-29T08:04:38;46.56;40.43;57.62;;
59284;Laerm;45056;47.602;9.886;2023-07-29T08:07:06;46.15;40.03;53.99;;
59284;Laerm;45056;47.602;9.886;2023-07-29T08:09:34;47.35;41.46;60.65;;
59284;Laerm;45056;47.602;9.886;2023-07-29T08:12:04;46.23;42.03;57.41;;
59284;Laerm;45056;47.602;9.886;2023-07-29T08:14:32;47.41;40.80;55.80;;
59284;Laerm;45056;47.602;9.886;2023-07-29T08:17:00;46.29;41.14;56.92;;
59284;Laerm;45056;47.602;9.886;2023-07-29T08:19:29;47.11;41.75;56.88;;
59284;Laerm;45056;47.602;9.886;2023-07-29T08:21:57;46.34;40.80;60.35;;
59284;Laerm;45056;47.602;9.886;2023-07-29T08:24:25;49.00;41.38;59.82;;
59284;Laerm;45056;47.602;9.886;2023-07-29T08:26:53;46.40;41.38;53.49;;
59284;Laerm;45056;47.602;9.886;2023-07-29T08:29:23;49.12;41.96;64.52;;
59284;Laerm;45056;47.602;9.886;2023-07-29T08:31:51;47.06;40.43;61.25;;
59284;Laerm;45056;47.602;9.886;2023-07-29T08:34:19;45.74;39.81;63.24;;
59284;Laerm;45056;47.602;9.886;2023-07-29T08:36:47;46.40;41.38;58.37;;
59284;Laerm;45056;47.602;9.886;2023-07-29T08:39:15;47.96;41.75;59.06;;
59284;Laerm;45056;47.602;9.886;2023-07-29T08:41:51;47.08;40.71;55.83;;
59284;Laerm;45056;47.602;9.886;2023-07-29T08:44:26;47.97;41.46;57.60;;
59284;Laerm;45056;47.602;9.886;2023-07-29T08:46:59;48.31;42.22;58.26;;
59284;Laerm;45056;47.602;9.886;2023-07-29T08:49:28;47.75;41.53;57.22;;
59284;Laerm;45056;47.602;9.886;2023-07-29T08:51:58;46.56;41.30;55.02;;
59284;Laerm;45056;47.602;9.886;2023-07-29T08:54:27;46.56;41.46;56.53;;
59284;Laerm;45056;47.602;9.886;2023-07-29T08:56:55;47.46;40.80;56.59;;
59284;Laerm;45056;47.602;9.886;2023-07-29T08:59:28;47.12;41.68;61.36;;
59284;Laerm;45056;47.602;9.886;2023-07-29T09:01:57;52.17;41.14;66.72;;
59284;Laerm;45056;47.602;9.886;2023-07-29T09:04:26;45.53;41.06;55.36;;
59284;Laerm;45056;47.602;9.886;2023-07-29T09:06:56;46.30;42.03;52.75;;
59284;Laerm;45056;47.602;9.886;2023-07-29T09:09:26;47.93;42.53;58.48;;
59284;Laerm;45056;47.602;9.886;2023-07-29T09:11:54;47.73;41.61;57.02;;
59284;Laerm;45056;47.602;9.886;2023-07-29T09:14:25;49.66;40.71;66.04;;
59284;Laerm;45056;47.602;9.886;2023-07-29T09:16:53;47.54;41.82;60.42;;
59284;Laerm;45056;47.602;9.886;2023-07-29T09:19:25;47.59;41.82;57.40;;
59284;Laerm;45056;47.602;9.886;2023-07-29T09:21:53;48.81;42.22;60.48;;
59284;Laerm;45056;47.602;9.886;2023-07-29T09:24:22;48.16;42.16;60.27;;
59284;Laerm;45056;47.602;9.886;2023-07-29T09:26:51;46.74;41.14;55.90;;
59284;Laerm;45056;47.602;9.886;2023-07-29T09:29:22;48.13;42.76;59.13;;
59284;Laerm;45056;47.602;9.886;2023-07-29T09:31:52;46.97;39.08;58.48;;
59284;Laerm;45056;47.602;9.886;2023-07-29T09:34:20;46.91;40.62;56.19;;
59284;Laerm;45056;47.602;9.886;2023-07-29T09:36:51;47.77;41.82;58.93;;
59284;Laerm;45056;47.602;9.886;2023-07-29T09:39:23;47.11;39.81;56.78;;
59284;Laerm;45056;47.602;9.886;2023-07-29T09:41:51;47.64;40.89;60.98;;
59284;Laerm;45056;47.602;9.886;2023-07-29T09:44:19;46.51;41.46;57.94;;
59284;Laerm;45056;47.602;9.886;2023-07-29T09:46:48;48.89;42.76;60.06;;
59284;Laerm;45056;47.602;9.886;2023-07-29T09:49:17;48.69;42.13;61.39;;
59284;Laerm;45056;47.602;9.886;2023-07-29T09:51:45;48.93;41.75;72.46;;
59284;Laerm;45056;47.602;9.886;2023-07-29T09:54:13;48.55;42.98;61.13;;
59284;Laerm;45056;47.602;9.886;2023-07-29T09:56:42;46.52;41.75;60.28;;
59284;Laerm;45056;47.602;9.886;2023-07-29T09:59:11;48.17;41.30;60.65;;
59284;Laerm;45056;47.602;9.886;2023-07-29T10:01:40;49.48;40.43;58.02;;
59284;Laerm;45056;47.602;9.886;2023-07-29T10:04:09;58.44;42.59;70.05;;
59284;Laerm;45056;47.602;9.886;2023-07-29T10:06:41;56.53;40.71;68.72;;
59284;Laerm;45056;47.602;9.886;2023-07-29T10:09:11;46.46;40.98;54.43;;
59284;Laerm;45056;47.602;9.886;2023-07-29T10:11:42;46.41;40.53;54.99;;
59284;Laerm;45056;47.602;9.886;2023-07-29T10:14:11;48.41;41.46;58.65;;
59284;Laerm;45056;47.602;9.886;2023-07-29T10:16:40;46.31;40.80;57.99;;
59284;Laerm;45056;47.602;9.886;2023-07-29T10:19:09;46.81;40.53;58.42;;
59284;Laerm;45056;47.602;9.886;2023-07-29T10:21:45;46.53;40.80;64.97;;
59284;Laerm;45056;47.602;9.886;2023-07-29T10:24:19;47.79;41.61;60.23;;
59284;Laerm;45056;47.602;9.886;2023-07-29T10:26:59;47.43;40.71;58.68;;
59284;Laerm;45056;47.602;9.886;2023-07-29T10:29:32;47.98;41.53;59.37;;
59284;Laerm;45056;47.602;9.886;2023-07-29T10:32:04;50.16;39.21;66.92;;
59284;Laerm;45056;47.602;9.886;2023-07-29T10:34:34;48.23;41.22;55.11;;
59284;Laerm;45056;47.602;9.886;2023-07-29T10:37:07;47.07;40.33;56.96;;
59284;Laerm;45056;47.602;9.886;2023-07-29T10:39:39;48.49;40.71;64.30;;
59284;Laerm;45056;47.602;9.886;2023-07-29T10:42:07;50.75;41.89;66.58;;
59284;Laerm;45056;47.602;9.886;2023-07-29T10:44:52;47.05;41.22;56.43;;
59284;Laerm;45056;47.602;9.886;2023-07-29T10:47:23;48.21;41.14;59.21;;
59284;Laerm;45056;47.602;9.886;2023-07-29T10:49:55;48.98;41.96;62.43;;
59284;Laerm;45056;47.602;9.886;2023-07-29T10:52:32;47.31;41.38;57.40;;
59284;Laerm;45056;47.602;9.886;2023-07-29T10:55:26;46.91;40.53;60.57;;
59284;Laerm;45056;47.602;9.886;2023-07-29T10:58:12;48.54;41.03;68.47;;
59284;Laerm;45056;47.602;9.886;2023-07-29T11:00:42;47.76;40.43;60.84;;
59284;Laerm;45056;47.602;9.886;2023-07-29T11:03:13;47.73;40.71;60.45;;
59284;Laerm;45056;47.602;9.886;2023-07-29T11:05:46;50.53;42.35;64.94;;
59284;Laerm;45056;47.602;9.886;2023-07-29T11:08:27;48.78;41.30;59.92;;
59284;Laerm;45056;47.602;9.886;2023-07-29T11:11:05;48.87;39.81;65.63;;
59284;Laerm;45056;47.602;9.886;2023-07-29T11:13:36;47.34;41.06;58.11;;
59284;Laerm;45056;47.602;9.886;2023-07-29T11:16:06;46.90;41.61;53.88;;
59284;Laerm;45056;47.602;9.886;2023-07-29T11:18:35;47.77;41.96;59.46;;
59284;Laerm;45056;47.602;9.886;2023-07-29T11:21:04;46.72;40.33;57.97;;
59284;Laerm;45056;47.602;9.886;2023-07-29T11:23:36;46.40;40.03;55.19;;
59284;Laerm;45056;47.602;9.886;2023-07-29T11:26:05;48.83;40.71;61.67;;
59284;Laerm;45056;47.602;9.886;2023-07-29T11:28:38;50.40;42.76;64.41;;
59284;Laerm;45056;47.602;9.886;2023-07-29T11:31:06;47.37;40.13;58.09;;
59284;Laerm;45056;47.602;9.886;2023-07-29T11:33:38;47.38;39.81;62.70;;
59284;Laerm;45056;47.602;9.886;2023-07-29T11:36:06;50.36;41.75;64.54;;
59284;Laerm;45056;47.602;9.886;2023-07-29T11:38:36;47.99;41.68;61.46;;
59284;Laerm;45056;47.602;9.886;2023-07-29T11:41:04;49.99;42.16;61.48;;
59284;Laerm;45056;47.602;9.886;2023-07-29T11:43:35;46.64;39.70;55.71;;
59284;Laerm;45056;47.602;9.886;2023-07-29T11:46:03;47.98;40.71;59.29;;
59284;Laerm;45056;47.602;9.886;2023-07-29T11:48:33;49.50;42.03;60.43;;
59284;Laerm;45056;47.602;9.886;2023-07-29T11:51:02;48.53;40.33;63.34;;
59284;Laerm;45056;47.602;9.886;2023-07-29T11:53:31;47.64;41.89;59.73;;
59284;Laerm;45056;47.602;9.886;2023-07-29T11:56:01;48.12;41.96;61.12;;
59284;Laerm;45056;47.602;9.886;2023-07-29T11:58:31;48.71;41.14;59.67;;
59284;Laerm;45056;47.602;9.886;2023-07-29T12:01:00;50.60;41.46;70.51;;
59284;Laerm;45056;47.602;9.886;2023-07-29T12:03:28;45.19;39.81;54.55;;
59284;Laerm;45056;47.602;9.886;2023-07-29T12:05:57;48.59;40.33;55.10;;
59284;Laerm;45056;47.602;9.886;2023-07-29T12:08:26;48.30;41.30;59.49;;
59284;Laerm;45056;47.602;9.886;2023-07-29T12:10:55;47.35;40.43;61.79;;
59284;Laerm;45056;47.602;9.886;2023-07-29T12:13:25;50.30;41.46;64.93;;
59284;Laerm;45056;47.602;9.886;2023-07-29T12:16:01;53.22;41.46;69.31;;
59284;Laerm;45056;47.602;9.886;2023-07-29T12:18:30;49.15;43.29;61.99;;
59284;Laerm;45056;47.602;9.886;2023-07-29T12:20:59;47.86;40.62;59.00;;
59284;Laerm;45056;47.602;9.886;2023-07-29T12:23:32;52.38;39.34;70.84;;
59284;Laerm;45056;47.602;9.886;2023-07-29T12:26:00;48.07;41.89;57.52;;
59284;Laerm;45056;47.602;9.886;2023-07-29T12:28:30;49.59;40.80;73.33;;
59284;Laerm;45056;47.602;9.886;2023-07-29T12:30:59;48.80;40.43;66.53;;
59284;Laerm;45056;47.602;9.886;2023-07-29T12:33:31;47.10;40.43;56.01;;
59284;Laerm;45056;47.602;9.886;2023-07-29T12:36:00;45.16;39.08;56.53;;
59284;Laerm;45056;47.602;9.886;2023-07-29T12:38:29;46.85;41.22;54.71;;
59284;Laerm;45056;47.602;9.886;2023-07-29T12:40:57;46.71;40.33;70.12;;
59284;Laerm;45056;47.602;9.886;2023-07-29T12:43:25;48.05;40.43;65.64;;
59284;Laerm;45056;47.602;9.886;2023-07-29T12:45:57;47.57;40.43;59.84;;
59284;Laerm;45056;47.602;9.886;2023-07-29T12:48:26;47.48;41.22;61.15;;
59284;Laerm;45056;47.602;9.886;2023-07-29T12:50:54;48.21;40.89;59.94;;
59284;Laerm;45056;47.602;9.886;2023-07-29T12:53:22;47.10;40.23;59.43;;
59284;Laerm;45056;47.602;9.886;2023-07-29T12:55:50;48.61;42.59;57.36;;
59284;Laerm;45056;47.602;9.886;2023-07-29T12:58:18;48.96;40.98;62.23;;
59284;Laerm;45056;47.602;9.886;2023-07-29T13:00:46;47.83;41.30;57.61;;
59284;Laerm;45056;47.602;9.886;2023-07-29T13:03:18;47.96;41.46;59.52;;
59284;Laerm;45056;47.602;9.886;2023-07-29T13:05:46;49.86;42.03;64.31;;
59284;Laerm;45056;47.602;9.886;2023-07-29T13:08:14;45.82;41.06;61.52;;
59284;Laerm;45056;47.602;9.886;2023-07-29T13:10:42;47.19;41.82;55.23;;
59284;Laerm;45056;47.602;9.886;2023-07-29T13:13:10;47.17;39.92;56.17;;
59284;Laerm;45056;47.602;9.886;2023-07-29T13:15:39;47.03;40.98;62.87;;
59284;Laerm;45056;47.602;9.886;2023-07-29T13:18:07;46.40;41.22;54.41;;
59284;Laerm;45056;47.602;9.886;2023-07-29T13:20:37;47.92;41.22;65.14;;
59284;Laerm;45056;47.602;9.886;2023-07-29T13:23:05;45.88;40.71;55.29;;
59284;Laerm;45056;47.602;9.886;2023-07-29T13:25:33;46.62;40.71;59.33;;
59284;Laerm;45056;47.602;9.886;2023-07-29T13:28:01;45.52;40.53;52.59;;
59284;Laerm;45056;47.602;9.886;2023-07-29T13:30:29;47.04;41.14;56.74;;
59284;Laerm;45056;47.602;9.886;2023-07-29T13:32:57;49.48;41.53;63.06;;
59284;Laerm;45056;47.602;9.886;2023-07-29T13:35:25;45.67;40.80;55.47;;
59284;Laerm;45056;47.602;9.886;2023-07-29T13:37:54;46.83;41.22;55.82;;
59284;Laerm;45056;47.602;9.886;2023-07-29T13:40:22;46.18;39.70;57.72;;
59284;Laerm;45056;47.602;9.886;2023-07-29T13:42:50;46.85;40.80;55.47;;
59284;Laerm;45056;47.602;9.886;2023-07-29T13:45:19;46.46;39.70;61.55;;
59284;Laerm;45056;47.602;9.886;2023-07-29T13:47:48;46.26;40.71;56.90;;
59284;Laerm;45056;47.602;9.886;2023-07-29T13:50:17;47.70;40.33;59.42;;
59284;Laerm;45056;47.602;9.886;2023-07-29T13:52:45;48.16;40.43;60.91;;
59284;Laerm;45056;47.602;9.886;2023-07-29T13:55:15;47.92;41.53;57.48;;
59284;Laerm;45056;47.602;9.886;2023-07-29T13:57:43;47.14;40.98;59.45;;
59284;Laerm;45056;47.602;9.886;2023-07-29T14:00:12;48.11;39.81;58.64;;